Time;durP1;ratioP1;P1;durP2;ratioP2;P2;SDS_P1;SDS_P2;PMS_P1;PMS_P2;Temp;Humidity;BMP_temperature;BMP_pressure;BME280_temperature;BME280_humidity;BME280_pressure;Samples;Min_cycle;Max_cycle;Signal;HPM_P1;HPM_P2
2022/11/08 00:01:33;;;;;;;9.85;2.72;;;10.30;99.90;;;;;;5006023;28;20049;-59
2022/11/08 00:04:01;;;;;;;15.15;2.95;;;10.50;99.90;;;;;;5010006;28;20582;-59
2022/11/08 00:14:41;;;;;;;9.88;2.45;;;11.00;99.90;;;;;;5009468;28;20113;-56
2022/11/08 00:17:07;;;;;;;7.07;2.08;;;11.30;99.90;;;;;;5012162;28;20514;-57
2022/11/08 00:19:33;;;;;;;5.25;1.67;;;11.50;99.90;;;;;;5007024;28;20029;-57
2022/11/08 00:21:58;;;;;;;5.32;1.60;;;11.60;99.90;;;;;;5008708;28;20455;-57
2022/11/08 00:24:24;;;;;;;8.07;1.58;;;11.80;99.90;;;;;;5007345;28;20034;-58
2022/11/08 00:26:49;;;;;;;10.20;2.03;;;11.80;99.90;;;;;;5008444;28;20052;-59
2022/11/08 00:29:15;;;;;;;8.93;2.03;;;11.80;99.90;;;;;;5007651;28;20033;-55
2022/11/08 00:31:42;;;;;;;10.73;1.55;;;12.00;99.90;;;;;;5012257;28;20067;-57
2022/11/08 00:34:08;;;;;;;8.65;1.95;;;12.00;99.90;;;;;;5002853;28;20026;-57
2022/11/08 00:36:33;;;;;;;13.93;2.83;;;12.00;99.90;;;;;;5006046;28;20045;-59
2022/11/08 00:38:59;;;;;;;10.70;2.00;;;12.00;99.90;;;;;;5011705;28;20038;-55
2022/11/08 00:41:24;;;;;;;8.57;2.53;;;12.10;99.90;;;;;;5017738;28;20029;-59
2022/11/08 00:43:50;;;;;;;5.28;1.60;;;12.30;99.90;;;;;;5009961;28;20057;-58
2022/11/08 00:46:16;;;;;;;13.80;1.98;;;12.40;99.90;;;;;;5008435;28;20117;-57
2022/11/08 00:48:41;;;;;;;4.38;1.20;;;12.50;99.90;;;;;;5010662;28;20463;-55
2022/11/08 00:51:09;;;;;;;2.95;1.17;;;12.60;99.90;;;;;;5016059;28;20512;-60
2022/11/08 00:53:38;;;;;;;8.05;1.60;;;12.60;99.90;;;;;;5005266;28;20056;-61
2022/11/08 00:56:07;;;;;;;8.25;1.80;;;12.70;99.90;;;;;;5010807;28;20102;-60
2022/11/08 00:58:33;;;;;;;10.02;1.63;;;12.80;99.90;;;;;;5013196;28;20025;-60
2022/11/08 01:00:58;;;;;;;7.55;1.83;;;12.80;99.90;;;;;;5009667;28;20387;-60
2022/11/08 01:03:25;;;;;;;5.75;1.25;;;12.90;99.90;;;;;;5010732;28;20018;-58
2022/11/08 01:05:53;;;;;;;5.57;1.55;;;12.90;99.90;;;;;;5012247;28;20117;-58
2022/11/08 01:08:20;;;;;;;6.15;1.50;;;12.90;99.90;;;;;;5009861;28;20022;-57
2022/11/08 01:10:49;;;;;;;12.38;1.77;;;12.80;99.90;;;;;;5008306;28;20108;-58
2022/11/08 01:13:15;;;;;;;10.55;1.60;;;12.80;99.90;;;;;;5010737;28;20036;-57
2022/11/08 01:15:43;;;;;;;9.75;1.42;;;12.90;99.90;;;;;;5012330;28;20021;-57
2022/11/08 01:18:10;;;;;;;6.45;1.63;;;12.90;99.90;;;;;;4992568;28;20026;-61
2022/11/08 01:20:39;;;;;;;5.05;1.50;;;13.00;99.90;;;;;;5006212;28;20030;-59
2022/11/08 01:23:05;;;;;;;4.47;1.25;;;13.00;99.90;;;;;;5007737;28;20076;-60
2022/11/08 01:25:33;;;;;;;4.10;1.27;;;13.00;99.90;;;;;;5010856;28;20369;-56
2022/11/08 01:27:59;;;;;;;5.70;1.33;;;13.10;99.90;;;;;;5013513;28;20022;-60
2022/11/08 01:30:24;;;;;;;11.75;1.63;;;13.10;99.90;;;;;;5003643;28;20842;-59
2022/11/08 01:32:50;;;;;;;12.30;1.85;;;13.10;99.90;;;;;;5010186;28;20025;-59
2022/11/08 01:35:16;;;;;;;6.00;1.63;;;13.10;99.90;;;;;;5010108;28;20022;-57
2022/11/08 01:37:41;;;;;;;10.10;1.55;;;13.10;99.90;;;;;;5008074;28;20037;-58
2022/11/08 01:40:07;;;;;;;7.70;1.67;;;13.10;99.90;;;;;;5002572;28;20037;-60
2022/11/08 01:42:33;;;;;;;4.88;1.30;;;13.20;99.90;;;;;;5005844;28;20038;-60
2022/11/08 01:45:02;;;;;;;7.88;2.17;;;13.10;99.90;;;;;;5014390;28;20025;-61
2022/11/08 01:47:27;;;;;;;6.95;1.80;;;13.10;99.90;;;;;;5012404;28;20026;-58
2022/11/08 01:50:13;;;;;;;9.70;1.73;;;13.10;99.90;;;;;;5006700;28;20106;-60
2022/11/08 01:52:44;;;;;;;7.65;1.55;;;13.20;99.90;;;;;;5010119;28;20057;-60
2022/11/08 01:55:15;;;;;;;13.35;1.63;;;13.10;99.90;;;;;;5010240;28;20030;-58
2022/11/08 01:57:45;;;;;;;10.65;2.25;;;13.10;99.90;;;;;;5014252;28;20022;-60
2022/11/08 02:00:11;;;;;;;11.02;2.10;;;13.10;99.90;;;;;;5008447;28;20160;-58
2022/11/08 02:02:39;;;;;;;8.55;2.10;;;13.00;99.90;;;;;;5006752;28;20116;-59
2022/11/08 02:05:23;;;;;;;10.57;2.42;;;12.90;99.90;;;;;;5007082;28;20021;-59
2022/11/08 02:07:54;;;;;;;10.25;2.53;;;12.90;99.90;;;;;;5002849;28;20022;-58
2022/11/08 02:10:22;;;;;;;8.70;1.80;;;12.80;99.90;;;;;;5007632;28;20030;-59
2022/11/08 02:12:48;;;;;;;4.78;2.22;;;12.70;99.90;;;;;;5017427;28;20112;-59
2022/11/08 02:15:15;;;;;;;6.63;1.80;;;12.60;99.90;;;;;;5011925;28;20088;-56
2022/11/08 02:17:40;;;;;;;7.35;1.92;;;12.50;99.90;;;;;;5002517;28;20026;-58
2022/11/08 02:20:06;;;;;;;6.95;2.80;;;12.50;99.90;;;;;;5013166;28;20080;-59
2022/11/08 02:22:43;;;;;;;6.30;2.67;;;12.50;99.90;;;;;;5005659;28;20034;-58
2022/11/08 02:25:09;;;;;;;12.93;2.38;;;12.40;99.90;;;;;;5008348;28;20399;-59
2022/11/08 02:27:34;;;;;;;8.45;2.72;;;12.30;99.90;;;;;;5004971;28;20033;-55
2022/11/08 02:30:00;;;;;;;7.32;2.53;;;12.20;99.90;;;;;;5011589;28;20487;-57
2022/11/08 02:32:25;;;;;;;19.25;2.97;;;12.20;99.90;;;;;;5012271;28;20507;-58
2022/11/08 02:34:55;;;;;;;10.98;2.88;;;12.20;99.90;;;;;;5009584;28;20144;-58
2022/11/08 02:37:22;;;;;;;10.80;2.97;;;12.10;99.90;;;;;;5009902;28;20025;-58
2022/11/08 02:39:48;;;;;;;8.30;2.47;;;12.10;99.90;;;;;;5010812;28;20856;-58
2022/11/08 02:42:17;;;;;;;7.82;3.03;;;12.00;99.90;;;;;;5013130;28;20113;-60
2022/11/08 02:44:43;;;;;;;11.00;2.55;;;12.00;99.90;;;;;;5005492;28;20109;-57
2022/11/08 02:47:09;;;;;;;8.50;2.40;;;12.00;99.90;;;;;;5012135;28;20038;-58
2022/11/08 02:49:34;;;;;;;10.50;2.72;;;12.00;99.90;;;;;;5012165;28;20033;-59
2022/11/08 02:52:00;;;;;;;15.85;2.88;;;11.90;99.90;;;;;;5012849;28;20113;-55
2022/11/08 02:54:25;;;;;;;13.02;2.72;;;11.90;99.90;;;;;;5013474;28;20028;-60
2022/11/08 02:56:51;;;;;;;26.27;3.88;;;11.90;99.90;;;;;;5012577;28;20065;-60
2022/11/08 02:59:16;;;;;;;11.35;2.75;;;11.80;99.90;;;;;;5014402;28;20034;-57
2022/11/08 03:01:42;;;;;;;6.20;2.25;;;11.80;99.90;;;;;;5005182;28;20099;-59
2022/11/08 03:04:07;;;;;;;5.25;2.40;;;11.80;99.90;;;;;;5009699;28;20042;-60
2022/11/08 03:06:33;;;;;;;7.75;2.55;;;11.70;99.90;;;;;;5007618;28;20044;-59
2022/11/08 03:08:58;;;;;;;4.32;2.55;;;11.70;99.90;;;;;;5011588;28;20022;-57
2022/11/08 03:11:24;;;;;;;15.27;2.65;;;11.60;99.90;;;;;;5013635;28;20029;-60
2022/11/08 03:13:50;;;;;;;10.73;2.05;;;11.60;99.90;;;;;;5002290;28;20672;-59
2022/11/08 03:16:15;;;;;;;9.18;2.20;;;11.60;99.90;;;;;;5006559;28;20060;-59
2022/11/08 03:18:41;;;;;;;8.82;2.92;;;11.60;99.90;;;;;;5012519;28;20029;-60
2022/11/08 03:21:06;;;;;;;9.07;2.80;;;11.60;99.90;;;;;;5010769;28;20030;-58
2022/11/08 03:23:32;;;;;;;9.48;2.30;;;11.50;99.90;;;;;;5012068;28;20022;-60
2022/11/08 03:26:02;;;;;;;9.27;2.53;;;11.50;99.90;;;;;;5010123;28;20018;-58
2022/11/08 03:28:27;;;;;;;10.27;2.88;;;11.50;99.90;;;;;;5016864;28;20056;-60
2022/11/08 03:30:53;;;;;;;15.82;2.58;;;11.50;99.90;;;;;;5012533;28;20049;-60
2022/11/08 03:33:19;;;;;;;7.28;2.85;;;11.40;99.90;;;;;;5005061;28;20022;-57
2022/11/08 03:35:46;;;;;;;7.95;2.80;;;11.40;99.90;;;;;;5007920;28;20113;-58
2022/11/08 03:38:12;;;;;;;8.45;3.25;;;11.30;99.90;;;;;;5014825;28;20492;-57
2022/11/08 03:40:37;;;;;;;8.27;2.90;;;11.30;99.90;;;;;;5011119;28;20033;-57
2022/11/08 03:43:03;;;;;;;4.75;2.45;;;11.30;99.90;;;;;;5003876;28;20030;-60
2022/11/08 03:45:28;;;;;;;9.68;3.25;;;11.20;99.90;;;;;;5008787;28;20038;-59
2022/11/08 03:47:54;;;;;;;9.73;2.60;;;11.20;99.90;;;;;;4990677;28;20369;-58
2022/11/08 03:50:20;;;;;;;8.30;2.70;;;11.10;99.90;;;;;;5007814;28;20539;-56
2022/11/08 03:52:48;;;;;;;7.13;2.58;;;11.10;99.90;;;;;;5005441;28;20038;-59
2022/11/08 03:55:15;;;;;;;4.35;2.58;;;11.10;99.90;;;;;;5022106;23;20058;-55
2022/11/08 03:57:42;;;;;;;6.28;2.75;;;11.00;99.90;;;;;;4990470;28;20026;-56
2022/11/08 04:00:10;;;;;;;11.88;2.95;;;11.00;99.90;;;;;;4995647;28;20034;-55
2022/11/08 04:02:36;;;;;;;9.20;3.33;;;11.00;99.90;;;;;;4989434;28;20026;-54
2022/11/08 04:05:03;;;;;;;16.58;3.20;;;11.00;99.90;;;;;;4989817;28;20032;-54
2022/11/08 04:07:29;;;;;;;8.13;3.60;;;10.90;99.90;;;;;;4992005;28;20026;-57
2022/11/08 04:09:54;;;;;;;12.52;3.80;;;10.80;99.90;;;;;;4994398;28;20468;-57
2022/11/08 04:15:14;;;;;;;15.00;3.40;;;10.80;99.90;;;;;;4989685;28;20104;-58
2022/11/08 04:23:10;;;;;;;12.68;2.90;;;10.70;99.90;;;;;;4988419;28;20049;-59
2022/11/08 04:25:36;;;;;;;8.05;3.08;;;10.60;99.90;;;;;;4988419;28;20030;-57
2022/11/08 04:28:02;;;;;;;6.57;2.88;;;10.60;99.90;;;;;;4995452;28;20034;-58
2022/11/08 04:30:27;;;;;;;7.25;3.70;;;10.50;99.90;;;;;;4991406;28;20022;-58
2022/11/08 04:32:53;;;;;;;11.95;3.22;;;10.50;99.90;;;;;;4989622;28;20046;-58
2022/11/08 04:35:18;;;;;;;12.32;3.20;;;10.40;99.90;;;;;;4988363;28;20022;-58
2022/11/08 04:37:44;;;;;;;11.32;3.70;;;10.30;99.90;;;;;;4988414;28;20062;-58
2022/11/08 04:40:10;;;;;;;7.68;3.42;;;10.30;99.90;;;;;;4990514;28;20408;-59
2022/11/08 04:42:36;;;;;;;7.95;3.63;;;10.30;99.90;;;;;;4994326;28;20026;-58
2022/11/08 04:45:01;;;;;;;14.32;3.95;;;10.20;99.90;;;;;;4984309;28;20554;-58
2022/11/08 04:47:27;;;;;;;5.22;2.70;;;10.10;99.90;;;;;;4994569;28;20503;-58
2022/11/08 04:49:53;;;;;;;10.10;3.75;;;10.10;99.90;;;;;;4989203;28;20048;-59
2022/11/08 04:52:19;;;;;;;11.65;3.65;;;10.10;99.90;;;;;;4987128;28;20104;-59
2022/11/08 04:54:45;;;;;;;8.27;3.50;;;10.10;99.90;;;;;;4987573;28;20034;-58
2022/11/08 04:57:12;;;;;;;10.55;3.78;;;10.10;99.90;;;;;;4999238;28;20033;-59
2022/11/08 04:59:38;;;;;;;10.00;3.63;;;10.10;99.90;;;;;;4990089;28;20091;-57
2022/11/08 05:02:04;;;;;;;13.52;3.60;;;10.10;99.90;;;;;;4985056;28;20027;-57
2022/11/08 05:04:30;;;;;;;5.38;3.85;;;10.10;99.90;;;;;;4984638;28;20039;-56
2022/11/08 05:06:55;;;;;;;5.80;3.78;;;10.10;99.90;;;;;;4990569;28;20026;-58
2022/11/08 05:09:21;;;;;;;7.13;3.67;;;10.20;99.90;;;;;;4990756;28;20022;-58
2022/11/08 05:11:47;;;;;;;12.85;4.10;;;10.20;99.90;;;;;;4988333;28;20026;-58
2022/11/08 05:14:12;;;;;;;7.25;3.45;;;10.20;99.90;;;;;;4985473;28;20030;-60
2022/11/08 05:16:38;;;;;;;7.55;3.72;;;10.20;99.90;;;;;;4996894;28;20033;-59
2022/11/08 05:19:03;;;;;;;7.85;3.47;;;10.20;99.90;;;;;;4988515;28;20038;-56
2022/11/08 05:24:16;;;;;;;11.75;3.35;;;10.20;99.90;;;;;;4988424;28;20065;-58
2022/11/08 05:26:44;;;;;;;15.88;4.15;;;10.20;99.90;;;;;;4991501;28;20038;-58
2022/11/08 05:29:11;;;;;;;9.13;3.42;;;10.20;99.90;;;;;;4985094;28;20431;-57
2022/11/08 05:31:37;;;;;;;9.40;3.72;;;10.20;99.90;;;;;;4988894;28;20089;-58
2022/11/08 05:34:02;;;;;;;9.70;3.03;;;10.30;99.90;;;;;;4987426;28;20050;-57
2022/11/08 05:36:28;;;;;;;8.43;3.10;;;10.30;99.90;;;;;;4987746;28;20097;-58
2022/11/08 05:38:55;;;;;;;12.02;3.25;;;10.30;99.90;;;;;;4987414;28;20022;-58
2022/11/08 05:41:22;;;;;;;5.45;3.13;;;10.20;99.90;;;;;;4996135;28;20018;-58
2022/11/08 05:43:50;;;;;;;10.85;3.45;;;10.20;99.90;;;;;;4981528;28;20086;-58
2022/11/08 05:46:17;;;;;;;6.57;3.80;;;10.10;99.90;;;;;;4988595;28;20655;-58
2022/11/08 05:48:43;;;;;;;17.20;3.92;;;10.10;99.90;;;;;;4985575;28;20057;-60
2022/11/08 05:51:10;;;;;;;7.78;3.83;;;10.10;99.90;;;;;;4985753;28;20452;-60
2022/11/08 05:53:37;;;;;;;15.52;3.72;;;10.10;99.90;;;;;;4984879;28;20026;-58
2022/11/08 05:56:03;;;;;;;17.70;3.40;;;10.10;99.90;;;;;;4991967;28;20046;-58
2022/11/08 05:58:30;;;;;;;10.73;4.10;;;10.10;99.90;;;;;;4990116;28;20037;-59
2022/11/08 06:01:07;;;;;;;15.25;3.22;;;10.10;99.90;;;;;;4981166;28;20023;-55
2022/11/08 06:03:33;;;;;;;11.98;3.35;;;10.10;99.90;;;;;;4982063;28;20082;-60
2022/11/08 06:06:10;;;;;;;6.97;2.55;;;10.10;99.90;;;;;;4993361;28;20026;-55
2022/11/08 06:08:36;;;;;;;9.45;3.15;;;10.10;99.90;;;;;;4992308;28;20057;-56
2022/11/08 06:11:06;;;;;;;5.75;3.15;;;10.10;99.90;;;;;;4993336;28;20042;-58
2022/11/08 06:13:33;;;;;;;5.95;2.80;;;10.10;99.90;;;;;;5003796;28;20037;-55
2022/11/08 06:16:03;;;;;;;6.60;2.80;;;10.10;99.90;;;;;;4997351;28;20030;-57
2022/11/08 06:18:30;;;;;;;10.93;2.95;;;10.10;99.90;;;;;;4996901;28;20052;-57
2022/11/08 06:21:00;;;;;;;9.57;3.40;;;10.10;99.90;;;;;;4990754;28;20038;-55
2022/11/08 06:23:26;;;;;;;7.35;2.60;;;10.10;99.90;;;;;;4987766;28;20031;-55
2022/11/08 06:25:52;;;;;;;7.95;3.33;;;10.10;99.90;;;;;;4993630;28;20026;-56
2022/11/08 06:28:18;;;;;;;6.60;2.22;;;10.10;99.90;;;;;;4988076;28;20058;-53
2022/11/08 06:30:44;;;;;;;13.13;3.08;;;10.10;99.90;;;;;;4991420;28;20054;-51
2022/11/08 06:33:10;;;;;;;11.50;3.40;;;10.00;99.90;;;;;;4993090;28;20026;-53
2022/11/08 06:35:36;;;;;;;12.07;3.00;;;10.00;99.90;;;;;;4990911;28;20022;-54
2022/11/08 06:38:02;;;;;;;15.60;3.42;;;10.00;99.90;;;;;;4994264;28;20045;-56
2022/11/08 06:40:27;;;;;;;10.63;3.17;;;10.10;99.90;;;;;;4994708;28;20476;-57
2022/11/08 06:42:53;;;;;;;6.28;2.90;;;10.10;99.90;;;;;;4994983;28;20105;-56
2022/11/08 06:45:19;;;;;;;13.40;3.25;;;10.10;99.90;;;;;;4993182;28;20460;-51
2022/11/08 06:47:44;;;;;;;6.47;3.53;;;10.10;99.90;;;;;;4991020;28;20038;-55
2022/11/08 06:50:10;;;;;;;10.50;3.90;;;10.10;99.90;;;;;;4992260;28;20034;-56
2022/11/08 06:52:35;;;;;;;15.82;3.40;;;10.10;99.90;;;;;;4989654;28;20143;-52
2022/11/08 06:55:01;;;;;;;17.23;3.80;;;10.10;99.90;;;;;;4994242;28;20499;-54
2022/11/08 06:57:26;;;;;;;7.65;2.67;;;10.10;99.90;;;;;;4993103;28;20027;-52
2022/11/08 06:59:52;;;;;;;10.02;2.97;;;10.10;99.90;;;;;;4993664;28;20038;-53
2022/11/08 07:02:17;;;;;;;12.95;3.22;;;10.10;99.90;;;;;;4991206;28;20090;-53
2022/11/08 07:04:43;;;;;;;6.75;3.10;;;10.20;99.90;;;;;;4993471;28;20369;-56
2022/11/08 07:07:08;;;;;;;9.32;3.53;;;10.30;99.90;;;;;;4985250;28;20049;-56
2022/11/08 07:09:34;;;;;;;10.02;3.00;;;10.30;99.90;;;;;;4992156;28;20014;-55
2022/11/08 07:11:59;;;;;;;10.38;2.72;;;10.40;99.90;;;;;;4986081;28;20114;-53
2022/11/08 07:14:25;;;;;;;9.05;2.95;;;10.40;99.90;;;;;;4989035;28;20542;-54
2022/11/08 07:16:50;;;;;;;6.20;2.95;;;10.40;99.90;;;;;;4992392;28;20113;-52
2022/11/08 07:19:16;;;;;;;7.95;2.75;;;10.50;99.90;;;;;;4992975;28;20034;-53
2022/11/08 07:21:41;;;;;;;5.10;2.60;;;10.50;99.90;;;;;;4992803;28;20133;-53
2022/11/08 07:24:07;;;;;;;7.55;2.60;;;10.50;99.90;;;;;;4988840;28;20034;-52
2022/11/08 07:26:33;;;;;;;9.38;3.10;;;10.60;99.90;;;;;;4990477;28;20034;-51
2022/11/08 07:28:58;;;;;;;5.03;2.38;;;10.60;99.90;;;;;;4991141;28;20441;-54
2022/11/08 07:31:24;;;;;;;7.78;2.80;;;10.60;99.90;;;;;;4992098;28;20027;-52
2022/11/08 07:33:49;;;;;;;10.52;2.30;;;10.60;99.90;;;;;;4990163;28;20106;-52
2022/11/08 07:36:15;;;;;;;6.53;2.40;;;10.60;99.90;;;;;;4971216;28;20057;-54
2022/11/08 07:38:40;;;;;;;7.00;2.30;;;10.60;99.90;;;;;;4992725;28;20444;-54
2022/11/08 07:41:07;;;;;;;6.20;2.35;;;10.70;99.90;;;;;;4977686;28;20451;-55
2022/11/08 07:43:34;;;;;;;7.18;2.38;;;10.80;99.90;;;;;;4992250;28;20098;-55
2022/11/08 07:46:00;;;;;;;9.52;1.90;;;10.80;99.90;;;;;;4991498;28;20022;-53
2022/11/08 07:48:27;;;;;;;6.10;2.17;;;10.90;99.90;;;;;;4993120;28;20499;-53
2022/11/08 07:50:53;;;;;;;9.75;3.42;;;11.00;99.90;;;;;;4992177;28;20073;-55
2022/11/08 07:53:19;;;;;;;8.70;4.25;;;11.10;99.90;;;;;;4987789;28;20023;-52
2022/11/08 07:55:46;;;;;;;10.70;4.47;;;11.10;99.90;;;;;;4991118;28;20038;-52
2022/11/08 07:58:13;;;;;;;12.38;4.18;;;11.20;99.90;;;;;;4984613;28;20053;-51
2022/11/08 08:00:41;;;;;;;9.40;3.70;;;11.20;99.90;;;;;;4988562;28;20030;-52
2022/11/08 08:03:09;;;;;;;7.45;3.20;;;11.30;99.90;;;;;;4984133;28;20428;-54
2022/11/08 08:05:37;;;;;;;7.95;2.72;;;11.30;99.90;;;;;;4988854;28;20037;-52
2022/11/08 08:08:03;;;;;;;8.40;2.05;;;11.40;99.90;;;;;;4982239;28;20030;-54
2022/11/08 08:10:30;;;;;;;5.47;1.67;;;11.50;99.90;;;;;;4993078;28;20638;-54
2022/11/08 08:12:56;;;;;;;7.35;1.92;;;11.60;99.90;;;;;;4992766;28;20030;-52
2022/11/08 08:15:22;;;;;;;5.85;1.60;;;11.70;99.90;;;;;;4992655;28;20081;-53
2022/11/08 08:17:48;;;;;;;6.35;1.75;;;11.70;99.90;;;;;;4993114;28;20026;-52
2022/11/08 08:20:14;;;;;;;3.58;1.58;;;11.80;99.90;;;;;;4992270;28;20030;-54
2022/11/08 08:22:47;;;;;;;5.63;1.55;;;11.90;99.90;;;;;;4993074;28;20484;-55
2022/11/08 08:25:13;;;;;;;3.17;1.88;;;11.90;99.90;;;;;;4992857;28;20495;-53
2022/11/08 08:27:39;;;;;;;3.80;1.98;;;12.00;99.90;;;;;;4989948;28;20042;-55
2022/11/08 08:30:05;;;;;;;6.40;3.28;;;12.10;99.90;;;;;;4990899;28;20396;-53
2022/11/08 08:32:31;;;;;;;9.88;2.97;;;12.20;99.90;;;;;;4992785;28;20026;-55
2022/11/08 08:34:57;;;;;;;5.47;2.92;;;12.20;99.90;;;;;;4992810;28;20030;-52
2022/11/08 08:37:22;;;;;;;10.13;2.30;;;12.30;99.90;;;;;;4991956;28;20392;-51
2022/11/08 08:39:48;;;;;;;9.27;2.00;;;12.40;99.90;;;;;;4992548;28;20038;-53
2022/11/08 08:42:13;;;;;;;7.97;2.10;;;12.40;99.90;;;;;;4991828;28;20045;-53
2022/11/08 08:44:39;;;;;;;8.25;1.63;;;12.50;99.90;;;;;;4992203;28;20042;-53
2022/11/08 08:47:04;;;;;;;11.45;1.58;;;12.60;99.90;;;;;;4992864;28;20038;-54
2022/11/08 08:49:30;;;;;;;4.20;1.48;;;12.60;99.90;;;;;;4990670;28;20424;-54
2022/11/08 08:51:56;;;;;;;7.97;2.03;;;12.70;99.90;;;;;;4992594;28;20072;-55
2022/11/08 08:54:21;;;;;;;4.28;1.80;;;12.70;99.90;;;;;;4992375;28;20026;-53
2022/11/08 08:56:47;;;;;;;6.15;1.98;;;12.80;99.90;;;;;;4986242;28;20085;-53
2022/11/08 08:59:13;;;;;;;5.85;2.38;;;12.90;99.90;;;;;;4988677;28;20031;-54
2022/11/08 09:01:39;;;;;;;5.47;1.50;;;12.90;99.90;;;;;;4991936;28;20026;-53
2022/11/08 09:04:04;;;;;;;6.28;2.15;;;12.90;99.90;;;;;;4992175;28;20093;-53
2022/11/08 09:06:30;;;;;;;4.32;1.73;;;13.00;99.90;;;;;;4991866;28;20109;-55
2022/11/08 09:08:55;;;;;;;4.25;1.55;;;13.00;99.90;;;;;;4992055;28;20449;-56
2022/11/08 09:11:21;;;;;;;4.75;1.95;;;13.00;99.90;;;;;;4991871;28;20049;-53
2022/11/08 09:13:46;;;;;;;7.55;1.85;;;13.00;99.90;;;;;;4989760;28;20039;-53
2022/11/08 09:16:13;;;;;;;3.92;1.63;;;13.10;99.90;;;;;;4993906;28;20030;-55
2022/11/08 09:18:39;;;;;;;6.22;1.65;;;13.10;99.90;;;;;;4983463;28;20485;-57
2022/11/08 09:21:04;;;;;;;6.75;1.70;;;13.20;99.90;;;;;;4991328;28;20041;-54
2022/11/08 09:23:30;;;;;;;9.63;1.88;;;13.20;99.90;;;;;;4987645;28;20469;-57
2022/11/08 09:25:58;;;;;;;8.60;1.92;;;13.20;99.90;;;;;;4990363;28;20030;-57
2022/11/08 09:28:23;;;;;;;9.07;2.05;;;13.20;99.90;;;;;;4989356;28;20097;-55
2022/11/08 09:30:49;;;;;;;10.23;2.35;;;13.20;99.90;;;;;;4991486;28;20481;-57
2022/11/08 09:33:14;;;;;;;2.92;1.35;;;13.20;99.90;;;;;;4991686;28;20120;-54
2022/11/08 09:35:40;;;;;;;4.13;1.67;;;13.20;99.90;;;;;;4990778;28;20114;-56
2022/11/08 09:38:06;;;;;;;2.72;1.27;;;13.30;99.90;;;;;;4989459;28;20033;-57
2022/11/08 09:41:01;;;;;;;10.27;2.08;;;13.20;99.90;;;;;;4989456;28;20027;-55
2022/11/08 09:43:51;;;;;;;4.85;1.90;;;13.30;99.90;;;;;;4989584;28;20038;-54
2022/11/08 09:46:53;;;;;;;7.25;1.73;;;13.30;99.90;;;;;;4987618;28;20050;-56
2022/11/08 09:49:26;;;;;;;4.93;1.90;;;13.20;99.90;;;;;;4957608;28;20038;-54
2022/11/08 09:51:52;;;;;;;2.58;1.65;;;13.30;99.90;;;;;;4991574;28;20082;-56
2022/11/08 09:54:31;;;;;;;10.05;1.88;;;13.30;99.90;;;;;;4991519;28;20481;-56
2022/11/08 09:56:57;;;;;;;6.53;2.58;;;13.30;99.90;;;;;;5004410;23;20431;-59
2022/11/08 09:59:41;;;;;;;8.68;1.95;;;13.30;99.90;;;;;;4977852;28;20584;-56
2022/11/08 10:02:16;;;;;;;5.90;1.75;;;13.40;99.90;;;;;;4968957;28;20062;-59
2022/11/08 10:04:44;;;;;;;6.00;2.15;;;13.50;99.90;;;;;;4970876;28;20023;-59
2022/11/08 10:07:16;;;;;;;5.03;1.92;;;13.50;99.90;;;;;;4973577;28;20030;-58
2022/11/08 10:10:23;;;;;;;11.23;1.60;;;13.60;99.90;;;;;;4968138;28;20482;-58
2022/11/08 10:13:14;;;;;;;7.05;1.48;;;13.50;99.90;;;;;;4945037;28;20463;-57
2022/11/08 10:16:05;;;;;;;8.13;1.45;;;13.70;99.90;;;;;;4975012;28;20022;-58
2022/11/08 10:18:43;;;;;;;4.95;1.85;;;13.70;99.90;;;;;;4948962;28;20377;-58
2022/11/08 10:21:26;;;;;;;5.53;1.92;;;13.70;99.90;;;;;;4981745;28;20433;-56
2022/11/08 10:24:02;;;;;;;2.88;1.58;;;13.70;99.90;;;;;;4977410;28;20092;-58
2022/11/08 10:26:36;;;;;;;8.15;1.58;;;13.70;99.90;;;;;;4974750;28;20037;-59
2022/11/08 10:29:32;;;;;;;4.78;1.65;;;13.70;99.90;;;;;;4970488;28;20489;-58
2022/11/08 10:32:10;;;;;;;8.60;1.83;;;13.70;99.90;;;;;;4962582;28;20610;-59
2022/11/08 10:34:46;;;;;;;3.65;1.60;;;13.80;99.90;;;;;;4972293;28;20027;-59
2022/11/08 10:37:14;;;;;;;4.72;2.00;;;13.80;99.90;;;;;;4968421;28;20090;-58
2022/11/08 10:39:55;;;;;;;5.20;1.95;;;13.80;99.90;;;;;;4980650;28;20073;-58
2022/11/08 10:42:33;;;;;;;8.57;1.80;;;13.90;99.90;;;;;;4976355;28;20035;-59
2022/11/08 10:44:59;;;;;;;3.63;1.73;;;14.00;99.90;;;;;;4972761;28;20421;-58
2022/11/08 10:47:28;;;;;;;5.20;1.63;;;14.10;99.90;;;;;;4964727;28;20034;-59
2022/11/08 10:49:54;;;;;;;8.57;1.48;;;14.10;99.90;;;;;;4970442;28;20059;-59
2022/11/08 10:52:43;;;;;;;2.78;1.60;;;14.10;99.90;;;;;;4979048;28;20039;-58
2022/11/08 10:55:29;;;;;;;4.18;1.65;;;14.20;99.90;;;;;;4969607;28;20034;-58
2022/11/08 10:57:55;;;;;;;7.95;2.20;;;14.30;99.90;;;;;;4979711;28;20464;-59
2022/11/08 11:00:22;;;;;;;5.03;2.10;;;14.40;99.90;;;;;;4981767;28;20027;-59
2022/11/08 11:02:50;;;;;;;8.02;1.88;;;14.30;99.90;;;;;;4989964;28;20030;-57
2022/11/08 11:05:20;;;;;;;3.05;1.45;;;14.40;99.90;;;;;;4969632;28;20038;-59
2022/11/08 11:07:52;;;;;;;3.38;1.30;;;14.50;99.90;;;;;;4968650;28;20544;-57
2022/11/08 11:10:26;;;;;;;2.95;1.55;;;14.50;99.90;;;;;;4964878;28;20102;-58
2022/11/08 11:13:08;;;;;;;7.93;1.80;;;14.50;99.90;;;;;;4971306;28;20050;-59
2022/11/08 11:15:37;;;;;;;5.88;1.77;;;14.60;99.90;;;;;;4968460;28;20705;-58
2022/11/08 11:18:14;;;;;;;5.13;1.25;;;14.60;99.90;;;;;;4976996;28;20037;-58
2022/11/08 11:20:39;;;;;;;3.28;1.40;;;14.60;99.90;;;;;;4965973;28;20042;-59
2022/11/08 11:23:10;;;;;;;3.80;1.35;;;14.50;99.90;;;;;;4969021;28;20050;-62
2022/11/08 11:25:35;;;;;;;6.45;1.77;;;14.60;99.90;;;;;;4969161;28;20031;-62
2022/11/08 11:28:02;;;;;;;2.75;1.60;;;14.70;99.90;;;;;;4976192;28;20035;-63
2022/11/08 11:30:32;;;;;;;3.95;1.42;;;14.90;99.90;;;;;;4965529;28;20070;-62
2022/11/08 11:33:22;;;;;;;4.07;1.67;;;15.10;99.90;;;;;;4971708;28;20019;-63
2022/11/08 11:35:53;;;;;;;6.65;1.63;;;15.20;99.90;;;;;;4964865;28;20401;-64
2022/11/08 11:38:38;;;;;;;5.00;1.67;;;15.40;99.90;;;;;;4975463;28;20034;-63
2022/11/08 11:41:13;;;;;;;6.63;1.42;;;15.40;99.90;;;;;;4951774;28;20122;-64
2022/11/08 11:44:08;;;;;;;9.30;2.30;;;15.30;99.90;;;;;;4963565;28;20122;-63
2022/11/08 11:47:06;;;;;;;4.28;1.73;;;15.40;99.90;;;;;;4937790;28;20050;-60
2022/11/08 11:49:34;;;;;;;4.72;1.40;;;15.50;99.90;;;;;;4937452;28;20038;-63
2022/11/08 11:52:00;;;;;;;5.55;1.25;;;15.80;99.90;;;;;;4966511;28;20884;-63
2022/11/08 11:54:31;;;;;;;8.20;2.05;;;15.90;99.90;;;;;;4971801;28;20037;-63
2022/11/08 11:57:06;;;;;;;7.72;1.45;;;16.00;99.90;;;;;;4963706;28;20039;-63
2022/11/08 11:59:42;;;;;;;4.25;1.40;;;16.10;99.90;;;;;;4964546;28;20065;-63
2022/11/08 12:02:38;;;;;;;6.05;1.40;;;16.10;99.90;;;;;;4968755;28;20034;-63
2022/11/08 12:05:28;;;;;;;3.63;1.55;;;16.20;99.90;;;;;;4969940;28;20152;-63
2022/11/08 12:08:19;;;;;;;4.88;2.05;;;16.30;99.90;;;;;;4966790;28;20703;-63
2022/11/08 12:10:50;;;;;;;4.38;1.73;;;16.20;99.90;;;;;;4965954;28;20023;-63
2022/11/08 12:13:36;;;;;;;6.35;1.70;;;16.20;99.90;;;;;;4970205;28;20097;-62
2022/11/08 12:16:36;;;;;;;1.77;1.10;;;16.20;99.90;;;;;;4968641;28;20030;-62
2022/11/08 12:19:19;;;;;;;3.20;1.30;;;16.10;99.90;;;;;;4940621;28;20035;-62
2022/11/08 12:22:21;;;;;;;3.35;1.40;;;16.00;99.90;;;;;;4963376;28;20094;-63
2022/11/08 12:25:19;;;;;;;8.65;1.20;;;15.80;99.90;;;;;;4970578;28;20028;-63
2022/11/08 12:27:50;;;;;;;6.50;1.95;;;15.80;99.90;;;;;;4965705;28;20089;-63
2022/11/08 12:30:47;;;;;;;8.25;2.08;;;15.80;99.90;;;;;;4963796;28;20045;-64
2022/11/08 12:33:47;;;;;;;9.20;1.83;;;15.70;99.90;;;;;;4956678;28;20035;-62
2022/11/08 12:36:37;;;;;;;3.60;1.60;;;15.80;99.90;;;;;;4964307;28;20074;-61
2022/11/08 12:39:15;;;;;;;8.02;1.75;;;15.70;99.90;;;;;;4970239;28;20019;-63
2022/11/08 12:41:43;;;;;;;6.97;1.60;;;15.70;99.90;;;;;;4961745;28;20027;-64
2022/11/08 12:44:51;;;;;;;3.67;1.40;;;15.70;99.90;;;;;;4968521;28;20058;-63
2022/11/08 12:47:48;;;;;;;7.20;1.40;;;15.80;99.90;;;;;;4966987;28;20147;-63
2022/11/08 12:50:38;;;;;;;5.15;1.52;;;15.80;99.90;;;;;;4964930;28;20114;-62
2022/11/08 12:53:29;;;;;;;3.20;1.23;;;15.80;99.90;;;;;;4965290;28;20046;-65
2022/11/08 12:55:57;;;;;;;6.53;1.52;;;15.80;99.90;;;;;;4961376;28;20035;-62
2022/11/08 12:58:37;;;;;;;6.00;1.65;;;15.80;99.90;;;;;;4963178;28;20023;-63
2022/11/08 13:01:12;;;;;;;5.18;1.85;;;15.80;99.90;;;;;;4958680;28;20381;-64
2022/11/08 13:03:49;;;;;;;;;;;15.80;99.90;;;;;;4960395;28;20037;-65
2022/11/08 13:06:23;;;;;;;4.97;1.83;;;15.70;99.90;;;;;;4967124;28;19988;-63
2022/11/08 13:08:51;;;;;;;6.25;2.10;;;15.70;99.90;;;;;;4971345;28;20034;-64
2022/11/08 13:11:31;;;;;;;6.25;2.28;;;15.70;99.90;;;;;;4964399;28;20018;-63
2022/11/08 13:13:59;;;;;;;7.47;2.67;;;15.70;99.90;;;;;;4961115;28;20027;-63
2022/11/08 13:16:38;;;;;;;4.85;2.20;;;15.60;99.90;;;;;;4965112;28;20038;-63
2022/11/08 13:19:04;;;;;;;8.15;1.65;;;15.60;99.90;;;;;;4970069;28;20053;-64